PWSweather.com
Personal Weather Stations
Station Observations

SkegnessGB

Lat: 53.147585, Lon: 0.345774

Elevation: 18

Station Type: Fine Offset WH3080

http://www.skegnessweather.info/

High Low Average
Temperature 35.8°F2.1°F 30.2°F-1.0°F 32.4°F0.2°F
Dew Point 34.5°F1.4°F 28.4°F-2.0°F 31.0°F-0.6°F
Winds 7.9 mph S12.7 mph S Calm Calm 2.9 mph 4.7 mph
Wind Gusts 10.1 mph16.3 mph 0.7 mph1.1 mph 4.1 mph6.6 mph
Humidity 97% 92% 95%
Pressure 29.79 in1008.80 in 29.46 in997.60 in -
Precipitation 0.00 in0.00 in - -
Hour Temp Dew Point Humidity Winds Wind Gusts Pressure Precip Precip Rate Daily Precip Total
12:00 AM 31.5°F-0.3°C 29.4°F-1.4°C 92% 5.2 mph S8.4 kmh S 5.9 mph9.5 kmh 29.64 in1003.7 mb 0.00 in0.0 mm 0.00 in0.0 mm 0.00 in0.0 mm
12:10 AM 31.3°F-0.4°C 29.2°F-1.6°C 92% 4.8 mph S7.7 kmh S 5.9 mph9.5 kmh 29.64 in1003.7 mb 0.00 in0.0 mm 0.00 in0.0 mm 0.00 in0.0 mm
12:20 AM 30.7°F-0.7°C 28.7°F-1.8°C 92% 2.9 mph S4.7 kmh S 4.2 mph6.8 kmh 29.64 in1003.7 mb 0.00 in0.0 mm 0.00 in0.0 mm 0.00 in0.0 mm
12:30 AM 30.9°F-0.6°C 28.9°F-1.7°C 92% 4.3 mph S6.9 kmh S 5.9 mph9.5 kmh 29.63 in1003.4 mb 0.00 in0.0 mm 0.00 in0.0 mm 0.00 in0.0 mm
12:40 AM 31.1°F-0.5°C 29.0°F-1.7°C 92% 5.2 mph WSW8.4 kmh WSW 7.6 mph12.2 kmh 29.64 in1003.7 mb 0.00 in0.0 mm 0.00 in0.0 mm 0.00 in0.0 mm
12:50 AM 30.9°F-0.6°C 29.1°F-1.6°C 93% 4.3 mph SE6.9 kmh SE 4.2 mph6.8 kmh 29.64 in1003.7 mb 0.00 in0.0 mm 0.00 in0.0 mm 0.00 in0.0 mm
01:00 AM 30.9°F-0.6°C 29.1°F-1.6°C 93% 4.0 mph S6.4 kmh S 4.9 mph7.9 kmh 29.64 in1003.7 mb 0.00 in0.0 mm 0.00 in0.0 mm 0.00 in0.0 mm
01:10 AM 31.3°F-0.4°C 29.5°F-1.4°C 93% 4.2 mph W6.8 kmh W 4.9 mph7.9 kmh 29.63 in1003.4 mb 0.00 in0.0 mm 0.00 in0.0 mm 0.00 in0.0 mm
01:20 AM 31.1°F-0.5°C 29.3°F-1.5°C 93% 3.8 mph S6.1 kmh S 5.9 mph9.5 kmh 29.63 in1003.4 mb 0.00 in0.0 mm 0.00 in0.0 mm 0.00 in0.0 mm
01:30 AM 31.1°F-0.5°C 29.3°F-1.5°C 93% 4.6 mph SW7.4 kmh SW 5.9 mph9.5 kmh 29.62 in1003.0 mb 0.00 in0.0 mm 0.00 in0.0 mm 0.00 in0.0 mm
01:40 AM 30.9°F-0.6°C 29.1°F-1.6°C 93% 4.0 mph W6.4 kmh W 5.9 mph9.5 kmh 29.62 in1003.0 mb 0.00 in0.0 mm 0.00 in0.0 mm 0.00 in0.0 mm
01:50 AM 30.7°F-0.7°C 29.0°F-1.7°C 93% 3.6 mph SW5.8 kmh SW 4.9 mph7.9 kmh 29.62 in1003.0 mb 0.00 in0.0 mm 0.00 in0.0 mm 0.00 in0.0 mm
02:00 AM 30.6°F-0.8°C 28.8°F-1.8°C 93% 4.4 mph S7.1 kmh S 4.9 mph7.9 kmh 29.62 in1003.0 mb 0.00 in0.0 mm 0.00 in0.0 mm 0.00 in0.0 mm
02:10 AM 30.4°F-0.9°C 28.6°F-1.9°C 93% 3.2 mph S5.1 kmh S 4.2 mph6.8 kmh 29.62 in1003.0 mb 0.00 in0.0 mm 0.00 in0.0 mm 0.00 in0.0 mm
02:20 AM 30.2°F-1.0°C 28.4°F-2.0°C 93% 3.0 mph S4.8 kmh S 3.4 mph5.5 kmh 29.62 in1003.0 mb 0.00 in0.0 mm 0.00 in0.0 mm 0.00 in0.0 mm
02:30 AM 30.4°F-0.9°C 28.6°F-1.9°C 93% 5.0 mph SSE8.0 kmh SSE 5.9 mph9.5 kmh 29.61 in1002.7 mb 0.00 in0.0 mm 0.00 in0.0 mm 0.00 in0.0 mm
02:40 AM 30.6°F-0.8°C 29.0°F-1.7°C 94% 6.1 mph S9.8 kmh S 6.6 mph10.6 kmh 29.61 in1002.7 mb 0.00 in0.0 mm 0.00 in0.0 mm 0.00 in0.0 mm
02:50 AM 30.6°F-0.8°C 29.0°F-1.7°C 94% 4.3 mph S6.9 kmh S 4.9 mph7.9 kmh 29.60 in1002.4 mb 0.00 in0.0 mm 0.00 in0.0 mm 0.00 in0.0 mm
03:00 AM 30.4°F-0.9°C 28.9°F-1.7°C 94% 3.9 mph WNW6.3 kmh WNW 4.9 mph7.9 kmh 29.60 in1002.4 mb 0.00 in0.0 mm 0.00 in0.0 mm 0.00 in0.0 mm
03:10 AM 30.7°F-0.7°C 29.2°F-1.6°C 94% 4.0 mph WNW6.4 kmh WNW 4.2 mph6.8 kmh 29.60 in1002.4 mb 0.00 in0.0 mm 0.00 in0.0 mm 0.00 in0.0 mm
03:20 AM 30.7°F-0.7°C 29.2°F-1.6°C 94% 4.0 mph WSW6.4 kmh WSW 4.2 mph6.8 kmh 29.59 in1002.0 mb 0.00 in0.0 mm 0.00 in0.0 mm 0.00 in0.0 mm
03:30 AM 30.7°F-0.7°C 29.2°F-1.6°C 94% 4.6 mph WSW7.4 kmh WSW 6.6 mph10.6 kmh 29.59 in1002.0 mb 0.00 in0.0 mm 0.00 in0.0 mm 0.00 in0.0 mm
03:40 AM 30.7°F-0.7°C 29.2°F-1.6°C 94% 4.2 mph S6.8 kmh S 4.2 mph6.8 kmh 29.59 in1002.0 mb 0.00 in0.0 mm 0.00 in0.0 mm 0.00 in0.0 mm
03:50 AM 30.7°F-0.7°C 29.2°F-1.6°C 94% 5.4 mph S8.7 kmh S 5.9 mph9.5 kmh 29.58 in1001.7 mb 0.00 in0.0 mm 0.00 in0.0 mm 0.00 in0.0 mm
04:00 AM 30.7°F-0.7°C 29.2°F-1.6°C 94% 7.0 mph SSE11.3 kmh SSE 6.6 mph10.6 kmh 29.58 in1001.7 mb 0.00 in0.0 mm 0.00 in0.0 mm 0.00 in0.0 mm
04:10 AM 30.7°F-0.7°C 29.2°F-1.6°C 94% 6.1 mph S9.8 kmh S 8.4 mph13.5 kmh 29.58 in1001.7 mb 0.00 in0.0 mm 0.00 in0.0 mm 0.00 in0.0 mm
04:20 AM 30.9°F-0.6°C 29.4°F-1.4°C 94% 6.7 mph SW10.8 kmh SW 7.6 mph12.2 kmh 29.57 in1001.4 mb 0.00 in0.0 mm 0.00 in0.0 mm 0.00 in0.0 mm
04:30 AM 31.1°F-0.5°C 29.6°F-1.3°C 94% 6.8 mph SW10.9 kmh SW 6.6 mph10.6 kmh 29.57 in1001.4 mb 0.00 in0.0 mm 0.00 in0.0 mm 0.00 in0.0 mm
04:40 AM 31.3°F-0.4°C 29.8°F-1.2°C 94% 6.5 mph SW10.5 kmh SW 7.6 mph12.2 kmh 29.56 in1001.0 mb 0.00 in0.0 mm 0.00 in0.0 mm 0.00 in0.0 mm
04:50 AM 31.5°F-0.3°C 29.9°F-1.2°C 94% 6.7 mph S10.8 kmh S 6.6 mph10.6 kmh 29.57 in1001.4 mb 0.00 in0.0 mm 0.00 in0.0 mm 0.00 in0.0 mm
05:00 AM 31.5°F-0.3°C 29.9°F-1.2°C 94% 7.9 mph S12.7 kmh S 10.1 mph16.3 kmh 29.56 in1001.0 mb 0.00 in0.0 mm 0.00 in0.0 mm 0.00 in0.0 mm
05:10 AM 31.6°F-0.2°C 30.1°F-1.1°C 94% 7.7 mph S12.4 kmh S 7.6 mph12.2 kmh 29.55 in1000.7 mb 0.00 in0.0 mm 0.00 in0.0 mm 0.00 in0.0 mm
05:20 AM 31.6°F-0.2°C 30.1°F-1.1°C 94% 5.9 mph SW9.5 kmh SW 7.6 mph12.2 kmh 29.55 in1000.7 mb 0.00 in0.0 mm 0.00 in0.0 mm 0.00 in0.0 mm
05:30 AM 31.6°F-0.2°C 30.1°F-1.1°C 94% 5.1 mph SW8.2 kmh SW 4.9 mph7.9 kmh 29.55 in1000.7 mb 0.00 in0.0 mm 0.00 in0.0 mm 0.00 in0.0 mm
05:40 AM 31.6°F-0.2°C 30.1°F-1.1°C 94% 5.7 mph S9.2 kmh S 6.6 mph10.6 kmh 29.55 in1000.7 mb 0.00 in0.0 mm 0.00 in0.0 mm 0.00 in0.0 mm
05:50 AM 31.8°F-0.1°C 30.3°F-0.9°C 94% 6.1 mph S9.8 kmh S 5.9 mph9.5 kmh 29.54 in1000.3 mb 0.00 in0.0 mm 0.00 in0.0 mm 0.00 in0.0 mm
06:00 AM 32.0°F0.0°C 30.7°F-0.7°C 95% 6.0 mph S9.7 kmh S 7.6 mph12.2 kmh 29.54 in1000.3 mb 0.00 in0.0 mm 0.00 in0.0 mm 0.00 in0.0 mm
06:10 AM 32.0°F0.0°C 30.7°F-0.7°C 95% 5.3 mph SW8.5 kmh SW 4.9 mph7.9 kmh 29.53 in1000.0 mb 0.00 in0.0 mm 0.00 in0.0 mm 0.00 in0.0 mm
06:20 AM 32.0°F0.0°C 30.7°F-0.7°C 95% 5.0 mph SSW8.0 kmh SSW 6.6 mph10.6 kmh 29.53 in1000.0 mb 0.00 in0.0 mm 0.00 in0.0 mm 0.00 in0.0 mm
06:30 AM 32.0°F0.0°C 30.7°F-0.7°C 95% 5.6 mph S9.0 kmh S 6.6 mph10.6 kmh 29.53 in1000.0 mb 0.00 in0.0 mm 0.00 in0.0 mm 0.00 in0.0 mm
06:40 AM 32.0°F0.0°C 30.7°F-0.7°C 95% 5.2 mph SW8.4 kmh SW 5.9 mph9.5 kmh 29.52 in999.7 mb 0.00 in0.0 mm 0.00 in0.0 mm 0.00 in0.0 mm
06:50 AM 32.0°F0.0°C 30.7°F-0.7°C 95% 3.7 mph S6.0 kmh S 5.9 mph9.5 kmh 29.52 in999.7 mb 0.00 in0.0 mm 0.00 in0.0 mm 0.00 in0.0 mm
07:00 AM 31.8°F-0.1°C 30.6°F-0.8°C 95% 2.8 mph SW4.5 kmh SW 4.2 mph6.8 kmh 29.52 in999.7 mb 0.00 in0.0 mm 0.00 in0.0 mm 0.00 in0.0 mm
07:10 AM 31.8°F-0.1°C 30.6°F-0.8°C 95% 2.7 mph SSE4.3 kmh SSE 3.4 mph5.5 kmh 29.52 in999.7 mb 0.00 in0.0 mm 0.00 in0.0 mm 0.00 in0.0 mm
07:20 AM 31.8°F-0.1°C 30.6°F-0.8°C 95% 2.9 mph S4.7 kmh S 3.4 mph5.5 kmh 29.52 in999.7 mb 0.00 in0.0 mm 0.00 in0.0 mm 0.00 in0.0 mm
07:30 AM 31.8°F-0.1°C 30.6°F-0.8°C 95% 2.9 mph SW4.7 kmh SW 4.2 mph6.8 kmh 29.52 in999.7 mb 0.00 in0.0 mm 0.00 in0.0 mm 0.00 in0.0 mm
07:40 AM 31.8°F-0.1°C 30.6°F-0.8°C 95% 3.1 mph SW5.0 kmh SW 3.4 mph5.5 kmh 29.52 in999.7 mb 0.00 in0.0 mm 0.00 in0.0 mm 0.00 in0.0 mm
07:50 AM 31.8°F-0.1°C 30.6°F-0.8°C 95% 2.0 mph SSW3.2 kmh SSW 3.4 mph5.5 kmh 29.51 in999.3 mb 0.00 in0.0 mm 0.00 in0.0 mm 0.00 in0.0 mm
08:00 AM 31.6°F-0.2°C 30.4°F-0.9°C 95% 2.2 mph SW3.5 kmh SW 3.4 mph5.5 kmh 29.51 in999.3 mb 0.00 in0.0 mm 0.00 in0.0 mm 0.00 in0.0 mm
08:10 AM 31.8°F-0.1°C 30.6°F-0.8°C 95% 3.5 mph SW5.6 kmh SW 4.9 mph7.9 kmh 29.51 in999.3 mb 0.00 in0.0 mm 0.00 in0.0 mm 0.00 in0.0 mm
08:20 AM 32.0°F0.0°C 30.7°F-0.7°C 95% 2.0 mph S3.2 kmh S 2.5 mph4.0 kmh 29.51 in999.3 mb 0.00 in0.0 mm 0.00 in0.0 mm 0.00 in0.0 mm
08:30 AM 32.4°F0.2°C 31.3°F-0.4°C 96% 3.1 mph SSW5.0 kmh SSW 4.2 mph6.8 kmh 29.51 in999.3 mb 0.00 in0.0 mm 0.00 in0.0 mm 0.00 in0.0 mm
08:40 AM 32.5°F0.3°C 31.5°F-0.3°C 96% 3.1 mph SW5.0 kmh SW 4.2 mph6.8 kmh 29.51 in999.3 mb 0.00 in0.0 mm 0.00 in0.0 mm 0.00 in0.0 mm
08:50 AM 32.5°F0.3°C 31.5°F-0.3°C 96% 3.7 mph SW6.0 kmh SW 4.2 mph6.8 kmh 29.50 in999.0 mb 0.00 in0.0 mm 0.00 in0.0 mm 0.00 in0.0 mm
09:00 AM 32.7°F0.4°C 31.7°F-0.2°C 96% 4.3 mph SSW6.9 kmh SSW 6.6 mph10.6 kmh 29.50 in999.0 mb 0.00 in0.0 mm 0.00 in0.0 mm 0.00 in0.0 mm
09:10 AM 32.9°F0.5°C 31.9°F-0.1°C 96% 3.1 mph SW5.0 kmh SW 4.9 mph7.9 kmh 29.51 in999.3 mb 0.00 in0.0 mm 0.00 in0.0 mm 0.00 in0.0 mm
09:20 AM 32.9°F0.5°C 31.9°F-0.1°C 96% 3.9 mph SSW6.3 kmh SSW 4.9 mph7.9 kmh 29.50 in999.0 mb 0.00 in0.0 mm 0.00 in0.0 mm 0.00 in0.0 mm
09:30 AM 32.9°F0.5°C 31.9°F-0.1°C 96% 1.7 mph SW2.7 kmh SW 4.9 mph7.9 kmh 29.50 in999.0 mb 0.00 in0.0 mm 0.00 in0.0 mm 0.00 in0.0 mm
09:40 AM 32.9°F0.5°C 31.9°F-0.1°C 96% 0.4 mph W0.6 kmh W 1.7 mph2.7 kmh 29.50 in999.0 mb 0.00 in0.0 mm 0.00 in0.0 mm 0.00 in0.0 mm
09:50 AM 33.1°F0.6°C 32.1°F0.1°C 96% 2.2 mph SE3.5 kmh SE 3.4 mph5.5 kmh 29.50 in999.0 mb 0.00 in0.0 mm 0.00 in0.0 mm 0.00 in0.0 mm
10:00 AM 33.6°F0.9°C 32.6°F0.3°C 96% 1.2 mph SSW1.9 kmh SSW 2.5 mph4.0 kmh 29.50 in999.0 mb 0.00 in0.0 mm 0.00 in0.0 mm 0.00 in0.0 mm
10:10 AM 33.8°F1.0°C 32.8°F0.4°C 96% 2.9 mph SSW4.7 kmh SSW 3.4 mph5.5 kmh 29.50 in999.0 mb 0.00 in0.0 mm 0.00 in0.0 mm 0.00 in0.0 mm
10:20 AM 34.2°F1.2°C 33.1°F0.6°C 96% 1.6 mph SW2.6 kmh SW 2.5 mph4.0 kmh 29.50 in999.0 mb 0.00 in0.0 mm 0.00 in0.0 mm 0.00 in0.0 mm
10:30 AM 34.3°F1.3°C 33.3°F0.7°C 96% 1.9 mph SSW3.1 kmh SSW 2.5 mph4.0 kmh 29.50 in999.0 mb 0.00 in0.0 mm 0.00 in0.0 mm 0.00 in0.0 mm
10:40 AM 34.3°F1.3°C 33.3°F0.7°C 96% 2.0 mph SW3.2 kmh SW 3.4 mph5.5 kmh 29.50 in999.0 mb 0.00 in0.0 mm 0.00 in0.0 mm 0.00 in0.0 mm
10:50 AM 34.7°F1.5°C 33.7°F0.9°C 96% 1.9 mph SSW3.1 kmh SSW 3.4 mph5.5 kmh 29.50 in999.0 mb 0.00 in0.0 mm 0.00 in0.0 mm 0.00 in0.0 mm
11:00 AM 35.1°F1.7°C 34.0°F1.1°C 96% 1.9 mph SSW3.1 kmh SSW 3.4 mph5.5 kmh 29.50 in999.0 mb 0.00 in0.0 mm 0.00 in0.0 mm 0.00 in0.0 mm
11:10 AM 35.1°F1.7°C 33.8°F1.0°C 95% 1.7 mph SSW2.7 kmh SSW 2.5 mph4.0 kmh 29.50 in999.0 mb 0.00 in0.0 mm 0.00 in0.0 mm 0.00 in0.0 mm
11:20 AM 35.4°F1.9°C 34.1°F1.2°C 95% 2.4 mph SW3.9 kmh SW 3.4 mph5.5 kmh 29.49 in998.6 mb 0.00 in0.0 mm 0.00 in0.0 mm 0.00 in0.0 mm
11:30 AM 35.4°F1.9°C 34.1°F1.2°C 95% 2.9 mph W4.7 kmh W 4.2 mph6.8 kmh 29.49 in998.6 mb 0.00 in0.0 mm 0.00 in0.0 mm 0.00 in0.0 mm
11:40 AM 35.6°F2.0°C 34.0°F1.1°C 94% 2.4 mph WSW3.9 kmh WSW 3.4 mph5.5 kmh 29.49 in998.6 mb 0.00 in0.0 mm 0.00 in0.0 mm 0.00 in0.0 mm
11:50 AM 35.8°F2.1°C 34.2°F1.2°C 94% 2.5 mph SW4.0 kmh SW 3.4 mph5.5 kmh 29.49 in998.6 mb 0.00 in0.0 mm 0.00 in0.0 mm 0.00 in0.0 mm
12:00 PM 35.4°F1.9°C 33.9°F1.1°C 94% 3.1 mph SW5.0 kmh SW 5.9 mph9.5 kmh 29.48 in998.3 mb 0.00 in0.0 mm 0.00 in0.0 mm 0.00 in0.0 mm
12:10 PM 35.2°F1.8°C 33.7°F0.9°C 94% 2.7 mph WSW4.3 kmh WSW 4.2 mph6.8 kmh 29.48 in998.3 mb 0.00 in0.0 mm 0.00 in0.0 mm 0.00 in0.0 mm
12:20 PM 35.2°F1.8°C 33.7°F0.9°C 94% 1.8 mph SW2.9 kmh SW 2.5 mph4.0 kmh 29.47 in998.0 mb 0.00 in0.0 mm 0.00 in0.0 mm 0.00 in0.0 mm
12:30 PM 35.2°F1.8°C 33.7°F0.9°C 94% 1.2 mph SSW1.9 kmh SSW 2.5 mph4.0 kmh 29.47 in998.0 mb 0.00 in0.0 mm 0.00 in0.0 mm 0.00 in0.0 mm
12:40 PM 35.4°F1.9°C 33.9°F1.1°C 94% 2.2 mph SW3.5 kmh SW 3.4 mph5.5 kmh 29.47 in998.0 mb 0.00 in0.0 mm 0.00 in0.0 mm 0.00 in0.0 mm
12:50 PM 35.6°F2.0°C 34.0°F1.1°C 94% 3.2 mph SSW5.1 kmh SSW 3.4 mph5.5 kmh 29.46 in997.6 mb 0.00 in0.0 mm 0.00 in0.0 mm 0.00 in0.0 mm
01:00 PM 35.6°F2.0°C 34.0°F1.1°C 94% 2.1 mph WSW3.4 kmh WSW 3.4 mph5.5 kmh 29.46 in997.6 mb 0.00 in0.0 mm 0.00 in0.0 mm 0.00 in0.0 mm
01:10 PM 35.4°F1.9°C 33.9°F1.1°C 94% 2.7 mph S4.3 kmh S 2.5 mph4.0 kmh 29.46 in997.6 mb 0.00 in0.0 mm 0.00 in0.0 mm 0.00 in0.0 mm
01:20 PM 35.4°F1.9°C 33.9°F1.1°C 94% 2.2 mph WSW3.5 kmh WSW 4.2 mph6.8 kmh 29.47 in998.0 mb 0.00 in0.0 mm 0.00 in0.0 mm 0.00 in0.0 mm
01:30 PM 35.4°F1.9°C 33.9°F1.1°C 94% 2.2 mph WSW3.5 kmh WSW 4.2 mph6.8 kmh 29.47 in998.0 mb 0.00 in0.0 mm 0.00 in0.0 mm 0.00 in0.0 mm
01:40 PM 35.2°F1.8°C 34.0°F1.1°C 95% 1.8 mph SW2.9 kmh SW 3.4 mph5.5 kmh 29.47 in998.0 mb 0.00 in0.0 mm 0.00 in0.0 mm 0.00 in0.0 mm
01:50 PM 35.4°F1.9°C 34.1°F1.2°C 95% 1.7 mph SW2.7 kmh SW 3.4 mph5.5 kmh 29.48 in998.3 mb 0.00 in0.0 mm 0.00 in0.0 mm 0.00 in0.0 mm
02:00 PM 35.4°F1.9°C 34.1°F1.2°C 95% 3.0 mph WNW4.8 kmh WNW 4.2 mph6.8 kmh 29.47 in998.0 mb 0.00 in0.0 mm 0.00 in0.0 mm 0.00 in0.0 mm
02:10 PM 35.4°F1.9°C 34.1°F1.2°C 95% 2.9 mph S4.7 kmh S 3.4 mph5.5 kmh 29.47 in998.0 mb 0.00 in0.0 mm 0.00 in0.0 mm 0.00 in0.0 mm
02:20 PM 35.4°F1.9°C 34.1°F1.2°C 95% 3.7 mph SW6.0 kmh SW 6.6 mph10.6 kmh 29.48 in998.3 mb 0.00 in0.0 mm 0.00 in0.0 mm 0.00 in0.0 mm
02:30 PM 35.4°F1.9°C 34.1°F1.2°C 95% 3.0 mph SW4.8 kmh SW 4.9 mph7.9 kmh 29.48 in998.3 mb 0.00 in0.0 mm 0.00 in0.0 mm 0.00 in0.0 mm
02:40 PM 35.6°F2.0°C 34.3°F1.3°C 95% 2.9 mph SW4.7 kmh SW 4.2 mph6.8 kmh 29.47 in998.0 mb 0.00 in0.0 mm 0.00 in0.0 mm 0.00 in0.0 mm
02:50 PM 35.6°F2.0°C 34.3°F1.3°C 95% 2.3 mph SW3.7 kmh SW 3.4 mph5.5 kmh 29.48 in998.3 mb 0.00 in0.0 mm 0.00 in0.0 mm 0.00 in0.0 mm
03:00 PM 35.8°F2.1°C 34.5°F1.4°C 95% 2.0 mph SSW3.2 kmh SSW 3.4 mph5.5 kmh 29.48 in998.3 mb 0.00 in0.0 mm 0.00 in0.0 mm 0.00 in0.0 mm
03:10 PM 35.8°F2.1°C 34.5°F1.4°C 95% 1.4 mph NW2.3 kmh NW 2.5 mph4.0 kmh 29.48 in998.3 mb 0.00 in0.0 mm 0.00 in0.0 mm 0.00 in0.0 mm
03:20 PM 35.6°F2.0°C 34.3°F1.3°C 95% 1.6 mph WSW2.6 kmh WSW 2.5 mph4.0 kmh 29.48 in998.3 mb 0.00 in0.0 mm 0.00 in0.0 mm 0.00 in0.0 mm
03:30 PM 35.4°F1.9°C 34.1°F1.2°C 95% 1.5 mph SW2.4 kmh SW 2.5 mph4.0 kmh 29.49 in998.6 mb 0.00 in0.0 mm 0.00 in0.0 mm 0.00 in0.0 mm
03:40 PM 35.2°F1.8°C 34.0°F1.1°C 95% 1.7 mph SSE2.7 kmh SSE 2.5 mph4.0 kmh 29.50 in999.0 mb 0.00 in0.0 mm 0.00 in0.0 mm 0.00 in0.0 mm
03:50 PM 35.1°F1.7°C 33.8°F1.0°C 95% 0.8 mph SW1.3 kmh SW 2.5 mph4.0 kmh 29.51 in999.3 mb 0.00 in0.0 mm 0.00 in0.0 mm 0.00 in0.0 mm
04:00 PM 34.5°F1.4°C 33.2°F0.7°C 95% 0.7 mph SSW1.1 kmh SSW 1.7 mph2.7 kmh 29.51 in999.3 mb 0.00 in0.0 mm 0.00 in0.0 mm 0.00 in0.0 mm
04:10 PM 34.0°F1.1°C 32.4°F0.2°C 94% 0.7 mph SW1.1 kmh SW 1.7 mph2.7 kmh 29.52 in999.7 mb 0.00 in0.0 mm 0.00 in0.0 mm 0.00 in0.0 mm
04:20 PM 33.6°F0.9°C 32.1°F0.1°C 94% 0.3 mph SW0.5 kmh SW 1.7 mph2.7 kmh 29.52 in999.7 mb 0.00 in0.0 mm 0.00 in0.0 mm 0.00 in0.0 mm
04:30 PM 33.3°F0.7°C 32.0°F0.0°C 95% 0.3 mph SW0.5 kmh SW 1.7 mph2.7 kmh 29.52 in999.7 mb 0.00 in0.0 mm 0.00 in0.0 mm 0.00 in0.0 mm
04:40 PM 32.9°F0.5°C 31.6°F-0.2°C 95% 0.2 mph SW0.3 kmh SW 1.7 mph2.7 kmh 29.53 in1000.0 mb 0.00 in0.0 mm 0.00 in0.0 mm 0.00 in0.0 mm
04:50 PM 32.5°F0.3°C 31.3°F-0.4°C 95% 0.1 mph WSW0.2 kmh WSW 1.7 mph2.7 kmh 29.54 in1000.3 mb 0.00 in0.0 mm 0.00 in0.0 mm 0.00 in0.0 mm
05:00 PM 32.0°F0.0°C 30.7°F-0.7°C 95% Calm Calm 0.7 mph1.1 kmh 29.54 in1000.3 mb 0.00 in0.0 mm 0.00 in0.0 mm 0.00 in0.0 mm
05:10 PM 31.6°F-0.2°C 30.4°F-0.9°C 95% 0.5 mph SW0.8 kmh SW 1.7 mph2.7 kmh 29.55 in1000.7 mb 0.00 in0.0 mm 0.00 in0.0 mm 0.00 in0.0 mm
05:20 PM 31.5°F-0.3°C 30.2°F-1.0°C 95% 0.3 mph SW0.5 kmh SW 2.5 mph4.0 kmh 29.55 in1000.7 mb 0.00 in0.0 mm 0.00 in0.0 mm 0.00 in0.0 mm
05:30 PM 31.3°F-0.4°C 30.0°F-1.1°C 95% Calm Calm 0.7 mph1.1 kmh 29.56 in1001.0 mb 0.00 in0.0 mm 0.00 in0.0 mm 0.00 in0.0 mm
05:40 PM 30.9°F-0.6°C 29.7°F-1.3°C 95% 0.2 mph SW0.3 kmh SW 1.7 mph2.7 kmh 29.57 in1001.4 mb 0.00 in0.0 mm 0.00 in0.0 mm 0.00 in0.0 mm
05:50 PM 30.9°F-0.6°C 29.7°F-1.3°C 95% 0.8 mph SSW1.3 kmh SSW 1.7 mph2.7 kmh 29.57 in1001.4 mb 0.00 in0.0 mm 0.00 in0.0 mm 0.00 in0.0 mm
06:00 PM 31.1°F-0.5°C 29.8°F-1.2°C 95% 0.7 mph SSW1.1 kmh SSW 1.7 mph2.7 kmh 29.57 in1001.4 mb 0.00 in0.0 mm 0.00 in0.0 mm 0.00 in0.0 mm
06:10 PM 31.1°F-0.5°C 30.1°F-1.1°C 96% 0.3 mph SSW0.5 kmh SSW 1.7 mph2.7 kmh 29.58 in1001.7 mb 0.00 in0.0 mm 0.00 in0.0 mm 0.00 in0.0 mm
06:20 PM 31.1°F-0.5°C 30.1°F-1.1°C 96% 0.2 mph SW0.3 kmh SW 1.7 mph2.7 kmh 29.59 in1002.0 mb 0.00 in0.0 mm 0.00 in0.0 mm 0.00 in0.0 mm
06:30 PM 31.3°F-0.4°C 30.3°F-0.9°C 96% 0.8 mph SW1.3 kmh SW 2.5 mph4.0 kmh 29.59 in1002.0 mb 0.00 in0.0 mm 0.00 in0.0 mm 0.00 in0.0 mm
06:40 PM 31.3°F-0.4°C 30.3°F-0.9°C 96% 1.7 mph W2.7 kmh W 3.4 mph5.5 kmh 29.60 in1002.4 mb 0.00 in0.0 mm 0.00 in0.0 mm 0.00 in0.0 mm
06:50 PM 31.3°F-0.4°C 30.3°F-0.9°C 96% 2.1 mph SW3.4 kmh SW 3.4 mph5.5 kmh 29.61 in1002.7 mb 0.00 in0.0 mm 0.00 in0.0 mm 0.00 in0.0 mm
07:00 PM 31.1°F-0.5°C 30.1°F-1.1°C 96% 1.1 mph S1.8 kmh S 3.4 mph5.5 kmh 29.61 in1002.7 mb 0.00 in0.0 mm 0.00 in0.0 mm 0.00 in0.0 mm
07:10 PM 30.9°F-0.6°C 29.9°F-1.2°C 96% 2.5 mph SW4.0 kmh SW 2.5 mph4.0 kmh 29.62 in1003.0 mb 0.00 in0.0 mm 0.00 in0.0 mm 0.00 in0.0 mm
07:20 PM 31.1°F-0.5°C 30.1°F-1.1°C 96% 1.5 mph SSW2.4 kmh SSW 3.4 mph5.5 kmh 29.63 in1003.4 mb 0.00 in0.0 mm 0.00 in0.0 mm 0.00 in0.0 mm
07:30 PM 31.3°F-0.4°C 30.3°F-0.9°C 96% 1.6 mph SSE2.6 kmh SSE 3.4 mph5.5 kmh 29.64 in1003.7 mb 0.00 in0.0 mm 0.00 in0.0 mm 0.00 in0.0 mm
07:40 PM 31.3°F-0.4°C 30.5°F-0.8°C 97% 2.1 mph S3.4 kmh S 4.9 mph7.9 kmh 29.65 in1004.1 mb 0.00 in0.0 mm 0.00 in0.0 mm 0.00 in0.0 mm
07:50 PM 31.5°F-0.3°C 30.7°F-0.7°C 97% 2.0 mph NE3.2 kmh NE 4.2 mph6.8 kmh 29.66 in1004.4 mb 0.00 in0.0 mm 0.00 in0.0 mm 0.00 in0.0 mm
08:00 PM 31.5°F-0.3°C 30.7°F-0.7°C 97% 2.5 mph N4.0 kmh N 3.4 mph5.5 kmh 29.66 in1004.4 mb 0.00 in0.0 mm 0.00 in0.0 mm 0.00 in0.0 mm
08:10 PM 31.5°F-0.3°C 30.7°F-0.7°C 97% 2.0 mph E3.2 kmh E 3.4 mph5.5 kmh 29.67 in1004.7 mb 0.00 in0.0 mm 0.00 in0.0 mm 0.00 in0.0 mm
08:20 PM 31.5°F-0.3°C 30.7°F-0.7°C 97% 1.8 mph SSW2.9 kmh SSW 2.5 mph4.0 kmh 29.68 in1005.1 mb 0.00 in0.0 mm 0.00 in0.0 mm 0.00 in0.0 mm
08:30 PM 31.5°F-0.3°C 30.5°F-0.8°C 96% 2.2 mph SSW3.5 kmh SSW 3.4 mph5.5 kmh 29.67 in1004.7 mb 0.00 in0.0 mm 0.00 in0.0 mm 0.00 in0.0 mm
08:40 PM 31.5°F-0.3°C 30.5°F-0.8°C 96% 2.5 mph E4.0 kmh E 3.4 mph5.5 kmh 29.68 in1005.1 mb 0.00 in0.0 mm 0.00 in0.0 mm 0.00 in0.0 mm
08:50 PM 31.6°F-0.2°C 30.6°F-0.8°C 96% 2.6 mph E4.2 kmh E 4.2 mph6.8 kmh 29.68 in1005.1 mb 0.00 in0.0 mm 0.00 in0.0 mm 0.00 in0.0 mm
09:00 PM 31.5°F-0.3°C 30.2°F-1.0°C 95% 2.0 mph NW3.2 kmh NW 3.4 mph5.5 kmh 29.69 in1005.4 mb 0.00 in0.0 mm 0.00 in0.0 mm 0.00 in0.0 mm
09:10 PM 31.5°F-0.3°C 30.2°F-1.0°C 95% 1.4 mph ESE2.3 kmh ESE 2.5 mph4.0 kmh 29.70 in1005.8 mb 0.00 in0.0 mm 0.00 in0.0 mm 0.00 in0.0 mm
09:20 PM 31.3°F-0.4°C 30.0°F-1.1°C 95% 1.9 mph SW3.1 kmh SW 2.5 mph4.0 kmh 29.70 in1005.8 mb 0.00 in0.0 mm 0.00 in0.0 mm 0.00 in0.0 mm
09:30 PM 31.3°F-0.4°C 29.8°F-1.2°C 94% 2.3 mph S3.7 kmh S 4.9 mph7.9 kmh 29.71 in1006.1 mb 0.00 in0.0 mm 0.00 in0.0 mm 0.00 in0.0 mm
09:40 PM 31.3°F-0.4°C 29.8°F-1.2°C 94% 1.9 mph SE3.1 kmh SE 2.5 mph4.0 kmh 29.72 in1006.4 mb 0.00 in0.0 mm 0.00 in0.0 mm 0.00 in0.0 mm
09:50 PM 31.1°F-0.5°C 29.6°F-1.3°C 94% 2.0 mph E3.2 kmh E 3.4 mph5.5 kmh 29.73 in1006.8 mb 0.00 in0.0 mm 0.00 in0.0 mm 0.00 in0.0 mm
10:00 PM 31.1°F-0.5°C 29.3°F-1.5°C 93% 1.4 mph WSW2.3 kmh WSW 4.2 mph6.8 kmh 29.73 in1006.8 mb 0.00 in0.0 mm 0.00 in0.0 mm 0.00 in0.0 mm
10:10 PM 30.7°F-0.7°C 29.0°F-1.7°C 93% 1.0 mph WNW1.6 kmh WNW 3.4 mph5.5 kmh 29.73 in1006.8 mb 0.00 in0.0 mm 0.00 in0.0 mm 0.00 in0.0 mm
10:20 PM 30.6°F-0.8°C 28.8°F-1.8°C 93% 1.2 mph SE1.9 kmh SE 4.2 mph6.8 kmh 29.73 in1006.8 mb 0.00 in0.0 mm 0.00 in0.0 mm 0.00 in0.0 mm
10:30 PM 30.6°F-0.8°C 28.8°F-1.8°C 93% 1.4 mph SW2.3 kmh SW 2.5 mph4.0 kmh 29.74 in1007.1 mb 0.00 in0.0 mm 0.00 in0.0 mm 0.00 in0.0 mm
10:40 PM 30.6°F-0.8°C 28.8°F-1.8°C 93% 2.1 mph W3.4 kmh W 3.4 mph5.5 kmh 29.74 in1007.1 mb 0.00 in0.0 mm 0.00 in0.0 mm 0.00 in0.0 mm
10:50 PM 30.7°F-0.7°C 29.0°F-1.7°C 93% 1.5 mph NE2.4 kmh NE 2.5 mph4.0 kmh 29.75 in1007.5 mb 0.00 in0.0 mm 0.00 in0.0 mm 0.00 in0.0 mm
11:00 PM 30.9°F-0.6°C 29.1°F-1.6°C 93% 2.2 mph ESE3.5 kmh ESE 4.9 mph7.9 kmh 29.75 in1007.5 mb 0.00 in0.0 mm 0.00 in0.0 mm 0.00 in0.0 mm
11:10 PM 31.1°F-0.5°C 29.3°F-1.5°C 93% 2.7 mph NE4.3 kmh NE 4.2 mph6.8 kmh 29.76 in1007.8 mb 0.00 in0.0 mm 0.00 in0.0 mm 0.00 in0.0 mm
11:20 PM 31.1°F-0.5°C 29.3°F-1.5°C 93% 2.7 mph WNW4.3 kmh WNW 4.9 mph7.9 kmh 29.77 in1008.1 mb 0.00 in0.0 mm 0.00 in0.0 mm 0.00 in0.0 mm
11:30 PM 31.1°F-0.5°C 29.0°F-1.7°C 92% 3.2 mph SW5.1 kmh SW 5.9 mph9.5 kmh 29.78 in1008.5 mb 0.00 in0.0 mm 0.00 in0.0 mm 0.00 in0.0 mm
11:40 PM 31.1°F-0.5°C 29.0°F-1.7°C 92% 2.8 mph E4.5 kmh E 4.2 mph6.8 kmh 29.78 in1008.5 mb 0.00 in0.0 mm 0.00 in0.0 mm 0.00 in0.0 mm
11:50 PM 31.1°F-0.5°C 29.0°F-1.7°C 92% 2.2 mph SW3.5 kmh SW 3.4 mph5.5 kmh 29.79 in1008.8 mb 0.00 in0.0 mm 0.00 in0.0 mm 0.00 in0.0 mm